SWR3684 LSGG-EDDM
Flight info
| Callsign | SWR3684 |
|---|---|
| Flight time | N/A |
| Altitude | 29000 |
| Route | SOSAL N871 KORED DCT NUNRI/N0372F190 T103 BETOS BETOS1A |
| Aircraft | A320/M-SDE3FGHIRWY/LB1 |
Departure
| Time | 2026-02-19 03:55 |
|---|---|
| Airport | Geneva International Airport (LSGG) |
Arrival
| Time | N/A |
|---|---|
| Airport | Munich Airport (EDDM) |
| Time | Latitude | Longitude | Altitude | Speed | Heading |
|---|---|---|---|---|---|
| 2026-02-19 03:28 | 46.23422 | 6.11129 | 1393 ft | 0 kts | 134° |
| 2026-02-19 03:37 | 46.23423 | 6.11129 | 1393 ft | 0 kts | 134° |
| 2026-02-19 03:41 | 46.23425 | 6.11126 | 1393 ft | 2 kts | 134° |
| 2026-02-19 03:42 | 46.23437 | 6.11107 | 1399 ft | 3 kts | 136° |
| 2026-02-19 03:42 | 46.23452 | 6.11087 | 1397 ft | 3 kts | 137° |
| 2026-02-19 03:42 | 46.23467 | 6.11067 | 1401 ft | 3 kts | 135° |
| 2026-02-19 03:42 | 46.23478 | 6.11051 | 1400 ft | 3 kts | 107° |
| 2026-02-19 03:43 | 46.23477 | 6.11028 | 1399 ft | 3 kts | 57° |
| 2026-02-19 03:43 | 46.23465 | 6.11005 | 1398 ft | 3 kts | 46° |
| 2026-02-19 03:43 | 46.23457 | 6.10993 | 1403 ft | 0 kts | 45° |
| 2026-02-19 03:47 | 46.23459 | 6.10996 | 1403 ft | 2 kts | 45° |
| 2026-02-19 03:47 | 46.23478 | 6.11024 | 1399 ft | 6 kts | 45° |
| 2026-02-19 03:47 | 46.23516 | 6.11079 | 1387 ft | 10 kts | 45° |
| 2026-02-19 03:48 | 46.23557 | 6.11140 | 1389 ft | 6 kts | 46° |
| 2026-02-19 03:48 | 46.23577 | 6.11163 | 1390 ft | 1 kts | 28° |
| 2026-02-19 03:50 | 46.23578 | 6.11163 | 1391 ft | 0 kts | 28° |
| 2026-02-19 03:50 | 46.23601 | 6.11161 | 1391 ft | 5 kts | 333° |
| 2026-02-19 03:50 | 46.23641 | 6.11109 | 1393 ft | 10 kts | 315° |
| 2026-02-19 03:51 | 46.23705 | 6.11080 | 1396 ft | 12 kts | 26° |
| 2026-02-19 03:51 | 46.23773 | 6.11180 | 1397 ft | 17 kts | 45° |
| 2026-02-19 03:51 | 46.23855 | 6.11300 | 1402 ft | 17 kts | 45° |
| 2026-02-19 03:51 | 46.23943 | 6.11429 | 1406 ft | 20 kts | 45° |
| 2026-02-19 03:52 | 46.24049 | 6.11586 | 1398 ft | 23 kts | 46° |
| 2026-02-19 03:52 | 46.24173 | 6.11768 | 1403 ft | 28 kts | 46° |
| 2026-02-19 03:52 | 46.24311 | 6.11968 | 1397 ft | 29 kts | 45° |
| 2026-02-19 03:53 | 46.24588 | 6.12375 | 1402 ft | 29 kts | 46° |
| 2026-02-19 03:53 | 46.24736 | 6.12593 | 1393 ft | 32 kts | 46° |
| 2026-02-19 03:53 | 46.24889 | 6.12696 | 1397 ft | 19 kts | 32° |
| 2026-02-19 03:53 | 46.24983 | 6.12707 | 1400 ft | 12 kts | 316° |
| 2026-02-19 03:54 | 46.24973 | 6.12611 | 1397 ft | 11 kts | 225° |
| 2026-02-19 03:54 | 46.24921 | 6.12532 | 1405 ft | 13 kts | 226° |
| 2026-02-19 03:54 | 46.24711 | 6.12223 | 1404 ft | 77 kts | 226° |
| 2026-02-19 03:54 | 46.24196 | 6.11468 | 1402 ft | 132 kts | 226° |
| 2026-02-19 03:55 | 46.23465 | 6.10392 | 1599 ft | 154 kts | 225° |
| 2026-02-19 03:55 | 46.22758 | 6.09308 | 2411 ft | 143 kts | 227° |
| 2026-02-19 03:55 | 46.22111 | 6.08358 | 3315 ft | 120 kts | 224° |
| 2026-02-19 03:55 | 46.21643 | 6.07327 | 3576 ft | 146 kts | 250° |
| 2026-02-19 03:56 | 46.21680 | 6.05661 | 3729 ft | 174 kts | 296° |
| 2026-02-19 03:56 | 46.22545 | 6.04640 | 4713 ft | 160 kts | 340° |
| 2026-02-19 03:56 | 46.23727 | 6.04466 | 5026 ft | 186 kts | 356° |
| 2026-02-19 03:57 | 46.26156 | 6.05181 | 6027 ft | 171 kts | 16° |
| 2026-02-19 03:57 | 46.27264 | 6.05962 | 6255 ft | 187 kts | 27° |
| 2026-02-19 03:57 | 46.28440 | 6.06952 | 6443 ft | 201 kts | 21° |
| 2026-02-19 03:57 | 46.29657 | 6.08130 | 6711 ft | 223 kts | 41° |
| 2026-02-19 03:58 | 46.30783 | 6.09850 | 6962 ft | 247 kts | 47° |
| 2026-02-19 03:58 | 46.31964 | 6.11820 | 7267 ft | 271 kts | 47° |
| 2026-02-19 03:58 | 46.33275 | 6.13940 | 7617 ft | 293 kts | 45° |
| 2026-02-19 03:58 | 46.34701 | 6.16117 | 8312 ft | 302 kts | 44° |
| 2026-02-19 03:59 | 46.36197 | 6.18280 | 9135 ft | 306 kts | 41° |
| 2026-02-19 03:59 | 46.37750 | 6.20404 | 9922 ft | 310 kts | 40° |
| 2026-02-19 03:59 | 46.39406 | 6.22586 | 10191 ft | 333 kts | 40° |
| 2026-02-19 03:59 | 46.41198 | 6.24902 | 10411 ft | 356 kts | 40° |
| 2026-02-19 04:00 | 46.43066 | 6.27340 | 10946 ft | 366 kts | 40° |
| 2026-02-19 04:00 | 46.44321 | 6.28999 | 11415 ft | 369 kts | 40° |
| 2026-02-19 04:00 | 46.46868 | 6.32397 | 12382 ft | 375 kts | 41° |
| 2026-02-19 04:01 | 46.50731 | 6.37591 | 13782 ft | 382 kts | 41° |
| 2026-02-19 04:01 | 46.52027 | 6.39337 | 14207 ft | 385 kts | 41° |
| 2026-02-19 04:01 | 46.53859 | 6.42188 | 14827 ft | 390 kts | 52° |
| 2026-02-19 04:01 | 46.55288 | 6.45556 | 15422 ft | 394 kts | 65° |
| 2026-02-19 04:02 | 46.56220 | 6.49290 | 16100 ft | 393 kts | 78° |
| 2026-02-19 04:02 | 46.56628 | 6.53199 | 16790 ft | 391 kts | 90° |
| 2026-02-19 04:02 | 46.56592 | 6.57156 | 17420 ft | 393 kts | 95° |
| 2026-02-19 04:02 | 46.56496 | 6.61139 | 18033 ft | 396 kts | 95° |
| 2026-02-19 04:03 | 46.56397 | 6.65159 | 18580 ft | 399 kts | 95° |
| 2026-02-19 04:03 | 46.56298 | 6.69195 | 19149 ft | 401 kts | 95° |
| 2026-02-19 04:03 | 46.56194 | 6.73257 | 19728 ft | 403 kts | 96° |
| 2026-02-19 04:03 | 46.56089 | 6.77338 | 20306 ft | 405 kts | 96° |
| 2026-02-19 04:04 | 46.56031 | 6.81441 | 20875 ft | 409 kts | 91° |